sensor_id;sensor_type;location;lat;lon;timestamp;pressure;altitude;pressure_sealevel;temperature;humidity
62703;BME280;66022;50.448;18.122;2023-01-29T00:01:55;100253.09;;;0.02;76.61
62703;BME280;66022;50.448;18.122;2023-01-29T00:06:08;100254.46;;;-0.01;76.31
62703;BME280;66022;50.448;18.122;2023-01-29T00:10:23;100255.41;;;0.02;76.74
62703;BME280;66022;50.448;18.122;2023-01-29T00:14:37;100256.31;;;0.02;76.37
62703;BME280;66022;50.448;18.122;2023-01-29T00:18:51;100256.24;;;0.05;75.93
62703;BME280;66022;50.448;18.122;2023-01-29T00:23:05;100256.47;;;0.07;76.10
62703;BME280;66022;50.448;18.122;2023-01-29T00:27:19;100255.97;;;0.07;76.63
62703;BME280;66022;50.448;18.122;2023-01-29T00:31:33;100255.45;;;0.08;76.51
62703;BME280;66022;50.448;18.122;2023-01-29T00:35:47;100257.20;;;0.09;76.04
62703;BME280;66022;50.448;18.122;2023-01-29T00:40:01;100259.08;;;0.10;76.77
62703;BME280;66022;50.448;18.122;2023-01-29T00:44:15;100260.85;;;0.06;77.06
62703;BME280;66022;50.448;18.122;2023-01-29T00:48:29;100263.39;;;0.08;76.59
62703;BME280;66022;50.448;18.122;2023-01-29T00:52:43;100263.79;;;0.11;76.30
62703;BME280;66022;50.448;18.122;2023-01-29T00:56:58;100264.36;;;0.10;76.21
62703;BME280;66022;50.448;18.122;2023-01-29T01:01:11;100264.58;;;0.11;75.94
62703;BME280;66022;50.448;18.122;2023-01-29T01:05:25;100265.45;;;0.11;76.50
62703;BME280;66022;50.448;18.122;2023-01-29T01:09:39;100264.01;;;0.12;75.88
62703;BME280;66022;50.448;18.122;2023-01-29T01:13:53;100261.42;;;0.09;75.93
62703;BME280;66022;50.448;18.122;2023-01-29T01:18:07;100258.53;;;0.09;75.81
62703;BME280;66022;50.448;18.122;2023-01-29T01:22:21;100254.06;;;0.09;75.80
62703;BME280;66022;50.448;18.122;2023-01-29T01:26:35;100249.19;;;0.07;75.84
62703;BME280;66022;50.448;18.122;2023-01-29T01:30:49;100244.62;;;0.08;75.92
62703;BME280;66022;50.448;18.122;2023-01-29T01:35:03;100241.52;;;0.07;76.44
62703;BME280;66022;50.448;18.122;2023-01-29T01:39:17;100237.13;;;0.09;75.94
62703;BME280;66022;50.448;18.122;2023-01-29T01:43:45;100232.31;;;0.08;74.94
62703;BME280;66022;50.448;18.122;2023-01-29T01:47:45;100229.13;;;0.05;76.26
62703;BME280;66022;50.448;18.122;2023-01-29T01:52:01;100227.22;;;0.04;76.34
62703;BME280;66022;50.448;18.122;2023-01-29T01:56:16;100224.89;;;-0.01;76.02
62703;BME280;66022;50.448;18.122;2023-01-29T02:00:32;100224.69;;;0.01;76.06
62703;BME280;66022;50.448;18.122;2023-01-29T02:04:43;100221.09;;;-0.04;76.09
62703;BME280;66022;50.448;18.122;2023-01-29T02:08:59;100217.38;;;-0.03;75.66
62703;BME280;66022;50.448;18.122;2023-01-29T02:13:09;100214.23;;;-0.03;75.70
62703;BME280;66022;50.448;18.122;2023-01-29T02:17:23;100211.80;;;-0.06;75.85
62703;BME280;66022;50.448;18.122;2023-01-29T02:30:08;100207.87;;;-0.13;76.65
62703;BME280;66022;50.448;18.122;2023-01-29T02:42:51;100204.94;;;-0.25;77.66
62703;BME280;66022;50.448;18.122;2023-01-29T02:51:18;100206.80;;;-0.22;77.08
62703;BME280;66022;50.448;18.122;2023-01-29T02:55:33;100207.14;;;-0.21;77.54
62703;BME280;66022;50.448;18.122;2023-01-29T02:59:44;100208.59;;;-0.17;76.92
62703;BME280;66022;50.448;18.122;2023-01-29T03:04:00;100210.33;;;-0.17;76.84
62703;BME280;66022;50.448;18.122;2023-01-29T03:08:13;100213.31;;;-0.13;77.52
62703;BME280;66022;50.448;18.122;2023-01-29T03:12:25;100214.04;;;-0.08;77.45
62703;BME280;66022;50.448;18.122;2023-01-29T03:16:44;100215.03;;;-0.06;76.86
62703;BME280;66022;50.448;18.122;2023-01-29T03:20:53;100217.22;;;-0.03;77.25
62703;BME280;66022;50.448;18.122;2023-01-29T03:25:07;100218.22;;;-0.02;77.75
62703;BME280;66022;50.448;18.122;2023-01-29T03:29:21;100218.24;;;0.00;77.52
62703;BME280;66022;50.448;18.122;2023-01-29T03:33:38;100217.53;;;0.02;77.81
62703;BME280;66022;50.448;18.122;2023-01-29T03:37:50;100217.47;;;0.04;77.65
62703;BME280;66022;50.448;18.122;2023-01-29T03:42:49;100215.22;;;0.06;77.61
62703;BME280;66022;50.448;18.122;2023-01-29T03:50:37;100211.18;;;0.06;77.28
62703;BME280;66022;50.448;18.122;2023-01-29T03:59:04;100207.75;;;0.05;77.38
62703;BME280;66022;50.448;18.122;2023-01-29T04:03:18;100204.67;;;0.05;77.81
62703;BME280;66022;50.448;18.122;2023-01-29T04:07:27;100199.19;;;0.02;76.86
62703;BME280;66022;50.448;18.122;2023-01-29T04:11:42;100194.70;;;0.00;77.33
62703;BME280;66022;50.448;18.122;2023-01-29T04:15:55;100191.35;;;-0.04;77.92
62703;BME280;66022;50.448;18.122;2023-01-29T04:20:12;100189.08;;;-0.04;77.43
62703;BME280;66022;50.448;18.122;2023-01-29T04:24:23;100184.72;;;-0.11;78.02
62703;BME280;66022;50.448;18.122;2023-01-29T04:41:24;100164.96;;;-0.19;77.62
62703;BME280;66022;50.448;18.122;2023-01-29T04:54:04;100160.55;;;-0.33;78.67
62703;BME280;66022;50.448;18.122;2023-01-29T05:02:29;100160.42;;;-0.37;78.40
62703;BME280;66022;50.448;18.122;2023-01-29T05:06:43;100157.39;;;-0.38;78.18
62703;BME280;66022;50.448;18.122;2023-01-29T05:10:58;100153.91;;;-0.37;78.35
62703;BME280;66022;50.448;18.122;2023-01-29T05:15:15;100149.80;;;-0.38;79.66
62703;BME280;66022;50.448;18.122;2023-01-29T05:19:25;100146.99;;;-0.38;78.64
62703;BME280;66022;50.448;18.122;2023-01-29T05:23:39;100144.34;;;-0.38;78.78
62703;BME280;66022;50.448;18.122;2023-01-29T05:27:53;100141.46;;;-0.39;78.69
62703;BME280;66022;50.448;18.122;2023-01-29T05:32:07;100139.03;;;-0.37;78.33
62703;BME280;66022;50.448;18.122;2023-01-29T05:36:21;100137.61;;;-0.45;78.80
62703;BME280;66022;50.448;18.122;2023-01-29T05:40:35;100137.45;;;-0.44;78.39
62703;BME280;66022;50.448;18.122;2023-01-29T05:44:49;100139.22;;;-0.45;78.66
62703;BME280;66022;50.448;18.122;2023-01-29T05:49:03;100139.86;;;-0.44;78.15
62703;BME280;66022;50.448;18.122;2023-01-29T05:53:17;100140.44;;;-0.43;78.12
62703;BME280;66022;50.448;18.122;2023-01-29T05:57:34;100139.69;;;-0.44;77.84
62703;BME280;66022;50.448;18.122;2023-01-29T06:01:45;100138.83;;;-0.43;77.90
62703;BME280;66022;50.448;18.122;2023-01-29T06:06:00;100138.87;;;-0.46;77.73
62703;BME280;66022;50.448;18.122;2023-01-29T06:10:13;100138.53;;;-0.46;77.93
62703;BME280;66022;50.448;18.122;2023-01-29T06:14:27;100140.44;;;-0.53;78.36
62703;BME280;66022;50.448;18.122;2023-01-29T06:18:41;100142.72;;;-0.54;77.73
62703;BME280;66022;50.448;18.122;2023-01-29T06:22:55;100144.78;;;-0.54;78.09
62703;BME280;66022;50.448;18.122;2023-01-29T06:27:09;100145.79;;;-0.55;78.14
62703;BME280;66022;50.448;18.122;2023-01-29T06:31:23;100148.24;;;-0.54;77.13
62703;BME280;66022;50.448;18.122;2023-01-29T06:35:37;100152.87;;;-0.56;77.97
62703;BME280;66022;50.448;18.122;2023-01-29T06:39:51;100155.47;;;-0.55;77.60
62703;BME280;66022;50.448;18.122;2023-01-29T06:44:05;100158.14;;;-0.59;77.87
62703;BME280;66022;50.448;18.122;2023-01-29T06:48:19;100160.72;;;-0.56;77.35
62703;BME280;66022;50.448;18.122;2023-01-29T06:52:33;100161.72;;;-0.53;77.13
62703;BME280;66022;50.448;18.122;2023-01-29T06:56:47;100162.71;;;-0.53;77.25
62703;BME280;66022;50.448;18.122;2023-01-29T07:01:05;100165.68;;;-0.51;77.65
62703;BME280;66022;50.448;18.122;2023-01-29T07:05:15;100167.70;;;-0.50;77.00
62703;BME280;66022;50.448;18.122;2023-01-29T07:09:29;100169.50;;;-0.46;77.07
62703;BME280;66022;50.448;18.122;2023-01-29T07:13:43;100168.96;;;-0.43;76.87
62703;BME280;66022;50.448;18.122;2023-01-29T07:18:00;100169.95;;;-0.40;76.36
62703;BME280;66022;50.448;18.122;2023-01-29T07:22:11;100171.91;;;-0.37;76.48
62703;BME280;66022;50.448;18.122;2023-01-29T07:26:25;100173.32;;;-0.36;76.78
62703;BME280;66022;50.448;18.122;2023-01-29T07:30:39;100175.89;;;-0.32;76.11
62703;BME280;66022;50.448;18.122;2023-01-29T07:34:55;100177.44;;;-0.30;76.06
62703;BME280;66022;50.448;18.122;2023-01-29T07:39:07;100179.58;;;-0.25;75.55
62703;BME280;66022;50.448;18.122;2023-01-29T07:43:21;100183.26;;;-0.22;75.13
62703;BME280;66022;50.448;18.122;2023-01-29T07:47:35;100186.94;;;-0.18;75.41
62703;BME280;66022;50.448;18.122;2023-01-29T07:51:49;100190.80;;;-0.14;74.96
62703;BME280;66022;50.448;18.122;2023-01-29T07:56:03;100192.95;;;-0.13;75.34
62703;BME280;66022;50.448;18.122;2023-01-29T08:00:17;100194.10;;;-0.07;74.39
62703;BME280;66022;50.448;18.122;2023-01-29T08:04:34;100197.07;;;-0.05;73.90
62703;BME280;66022;50.448;18.122;2023-01-29T08:08:45;100202.97;;;0.00;74.38
62703;BME280;66022;50.448;18.122;2023-01-29T08:12:59;100211.22;;;0.03;73.62
62703;BME280;66022;50.448;18.122;2023-01-29T08:17:13;100218.13;;;0.04;74.02
62703;BME280;66022;50.448;18.122;2023-01-29T08:21:30;100223.65;;;0.06;72.24
62703;BME280;66022;50.448;18.122;2023-01-29T08:25:41;100227.95;;;0.06;73.25
62703;BME280;66022;50.448;18.122;2023-01-29T08:29:55;100231.55;;;0.09;73.50
62703;BME280;66022;50.448;18.122;2023-01-29T08:34:09;100233.22;;;0.08;72.41
62703;BME280;66022;50.448;18.122;2023-01-29T08:38:23;100232.84;;;0.14;72.78
62703;BME280;66022;50.448;18.122;2023-01-29T08:42:38;100232.15;;;0.21;72.90
62703;BME280;66022;50.448;18.122;2023-01-29T08:46:51;100230.10;;;0.25;71.69
62703;BME280;66022;50.448;18.122;2023-01-29T08:51:05;100228.22;;;0.33;71.04
62703;BME280;66022;50.448;18.122;2023-01-29T08:55:19;100225.44;;;0.39;70.75
62703;BME280;66022;50.448;18.122;2023-01-29T08:59:33;100220.53;;;0.47;70.50
62703;BME280;66022;50.448;18.122;2023-01-29T09:03:47;100216.26;;;0.53;68.98
62703;BME280;66022;50.448;18.122;2023-01-29T09:38:11;100200.62;;;1.26;66.53
62703;BME280;66022;50.448;18.122;2023-01-29T10:55:56;100068.23;;;5.17;57.32
62703;BME280;66022;50.448;18.122;2023-01-29T11:00:47;100062.87;;;5.28;58.21
62703;BME280;66022;50.448;18.122;2023-01-29T11:04:19;100058.60;;;5.33;55.98
62703;BME280;66022;50.448;18.122;2023-01-29T11:17:01;100045.53;;;5.41;57.02
62703;BME280;66022;50.448;18.122;2023-01-29T11:25:32;100035.21;;;5.29;57.13
62703;BME280;66022;50.448;18.122;2023-01-29T11:29:46;100029.93;;;5.19;58.96
62703;BME280;66022;50.448;18.122;2023-01-29T11:34:02;100025.28;;;5.12;59.46
62703;BME280;66022;50.448;18.122;2023-01-29T11:38:18;100020.36;;;5.06;57.75
62703;BME280;66022;50.448;18.122;2023-01-29T11:42:29;100016.85;;;4.98;59.07
62703;BME280;66022;50.448;18.122;2023-01-29T11:46:42;100016.11;;;4.79;58.77
62703;BME280;66022;50.448;18.122;2023-01-29T11:50:57;100013.84;;;4.67;59.07
62703;BME280;66022;50.448;18.122;2023-01-29T12:03:39;100001.03;;;4.26;59.65
62703;BME280;66022;50.448;18.122;2023-01-29T12:07:53;99996.41;;;4.12;60.22
62703;BME280;66022;50.448;18.122;2023-01-29T12:16:43;99987.97;;;3.94;60.74
62703;BME280;66022;50.448;18.122;2023-01-29T12:20:36;99983.39;;;3.88;61.57
62703;BME280;66022;50.448;18.122;2023-01-29T12:24:51;99979.08;;;3.79;57.21
62703;BME280;66022;50.448;18.122;2023-01-29T12:41:49;99961.33;;;3.55;61.59
62703;BME280;66022;50.448;18.122;2023-01-29T12:45:59;99955.43;;;3.47;61.66
62703;BME280;66022;50.448;18.122;2023-01-29T12:58:44;99936.21;;;3.26;62.55
62703;BME280;66022;50.448;18.122;2023-01-29T13:07:18;99919.89;;;3.15;62.63
62703;BME280;66022;50.448;18.122;2023-01-29T13:11:27;99913.59;;;3.10;62.77
62703;BME280;66022;50.448;18.122;2023-01-29T13:15:45;99909.14;;;3.03;62.74
62703;BME280;66022;50.448;18.122;2023-01-29T13:19:54;99903.15;;;2.98;63.84
62703;BME280;66022;50.448;18.122;2023-01-29T13:24:09;99898.85;;;2.93;63.92
62703;BME280;66022;50.448;18.122;2023-01-29T13:28:21;99895.67;;;2.87;63.68
62703;BME280;66022;50.448;18.122;2023-01-29T13:32:35;99892.91;;;2.82;64.55
62703;BME280;66022;50.448;18.122;2023-01-29T13:36:51;99889.00;;;2.69;64.93
62703;BME280;66022;50.448;18.122;2023-01-29T13:41:04;99885.82;;;2.64;64.24
62703;BME280;66022;50.448;18.122;2023-01-29T13:45:19;99882.35;;;2.55;65.07
62703;BME280;66022;50.448;18.122;2023-01-29T13:49:32;99877.51;;;2.51;65.25
62703;BME280;66022;50.448;18.122;2023-01-29T13:53:54;99873.74;;;2.48;65.76
62703;BME280;66022;50.448;18.122;2023-01-29T13:58:01;99870.06;;;2.44;65.24
62703;BME280;66022;50.448;18.122;2023-01-29T14:10:42;99860.91;;;2.33;65.16
62703;BME280;66022;50.448;18.122;2023-01-29T14:19:14;99851.73;;;2.22;66.48
62703;BME280;66022;50.448;18.122;2023-01-29T14:27:35;99849.08;;;2.18;66.95
62703;BME280;66022;50.448;18.122;2023-01-29T14:31:51;99849.00;;;2.19;67.19
62703;BME280;66022;50.448;18.122;2023-01-29T14:36:08;99847.38;;;2.17;66.81
62703;BME280;66022;50.448;18.122;2023-01-29T14:40:21;99847.80;;;2.18;67.38
62703;BME280;66022;50.448;18.122;2023-01-29T14:48:45;99852.20;;;2.12;67.35
62703;BME280;66022;50.448;18.122;2023-01-29T14:57:13;99851.50;;;2.08;67.93
62703;BME280;66022;50.448;18.122;2023-01-29T15:05:44;99853.16;;;2.04;67.70
62703;BME280;66022;50.448;18.122;2023-01-29T15:14:13;99851.71;;;2.02;68.56
62703;BME280;66022;50.448;18.122;2023-01-29T15:22:41;99847.69;;;2.00;67.98
62703;BME280;66022;50.448;18.122;2023-01-29T15:26:51;99845.78;;;1.92;68.29
62703;BME280;66022;50.448;18.122;2023-01-29T15:31:06;99840.69;;;1.91;68.29
62703;BME280;66022;50.448;18.122;2023-01-29T15:39:38;99828.31;;;1.82;68.80
62703;BME280;66022;50.448;18.122;2023-01-29T15:43:48;99824.00;;;1.78;69.26
62703;BME280;66022;50.448;18.122;2023-01-29T15:48:05;99820.59;;;1.74;68.75
62703;BME280;66022;50.448;18.122;2023-01-29T15:52:19;99817.49;;;1.71;69.46
62703;BME280;66022;50.448;18.122;2023-01-29T16:04:57;99810.03;;;1.58;69.05
62703;BME280;66022;50.448;18.122;2023-01-29T16:09:15;99805.06;;;1.57;69.68
62703;BME280;66022;50.448;18.122;2023-01-29T16:13:32;99802.20;;;1.54;70.14
62703;BME280;66022;50.448;18.122;2023-01-29T16:17:41;99799.64;;;1.51;70.39
62703;BME280;66022;50.448;18.122;2023-01-29T16:21:55;99797.66;;;1.51;70.28
62703;BME280;66022;50.448;18.122;2023-01-29T16:26:11;99794.62;;;1.49;70.34
62703;BME280;66022;50.448;18.122;2023-01-29T16:30:23;99792.64;;;1.50;70.70
62703;BME280;66022;50.448;18.122;2023-01-29T16:38:59;99787.17;;;1.49;70.12
62703;BME280;66022;50.448;18.122;2023-01-29T16:55:45;99782.15;;;1.51;70.61
62703;BME280;66022;50.448;18.122;2023-01-29T17:00:00;99781.45;;;1.52;70.59
62703;BME280;66022;50.448;18.122;2023-01-29T17:04:13;99781.30;;;1.53;70.45
62703;BME280;66022;50.448;18.122;2023-01-29T17:08:33;99779.47;;;1.53;70.59
62703;BME280;66022;50.448;18.122;2023-01-29T17:12:41;99778.27;;;1.54;70.25
62703;BME280;66022;50.448;18.122;2023-01-29T17:21:10;99774.51;;;1.50;71.08
62703;BME280;66022;50.448;18.122;2023-01-29T17:25:23;99771.44;;;1.49;70.83
62703;BME280;66022;50.448;18.122;2023-01-29T17:29:37;99767.80;;;1.52;71.02
62703;BME280;66022;50.448;18.122;2023-01-29T17:33:51;99766.52;;;1.54;72.39
62703;BME280;66022;50.448;18.122;2023-01-29T17:38:09;99765.06;;;1.53;73.00
62703;BME280;66022;50.448;18.122;2023-01-29T17:42:24;99764.69;;;1.54;73.50
62703;BME280;66022;50.448;18.122;2023-01-29T18:08:03;99745.19;;;1.42;75.60
62703;BME280;66022;50.448;18.122;2023-01-29T18:12:15;99740.88;;;1.41;75.38
62703;BME280;66022;50.448;18.122;2023-01-29T18:25:00;99731.11;;;1.31;77.73
62703;BME280;66022;50.448;18.122;2023-01-29T18:29:10;99729.83;;;1.31;76.10
62703;BME280;66022;50.448;18.122;2023-01-29T18:33:34;99729.17;;;1.32;76.02
62703;BME280;66022;50.448;18.122;2023-01-29T18:41:55;99728.27;;;1.33;76.14
62703;BME280;66022;50.448;18.122;2023-01-29T18:46:11;99726.89;;;1.33;76.22
62703;BME280;66022;50.448;18.122;2023-01-29T18:54:40;99722.63;;;1.36;74.92
62703;BME280;66022;50.448;18.122;2023-01-29T18:58:52;99720.28;;;1.38;75.32
62703;BME280;66022;50.448;18.122;2023-01-29T19:07:25;99714.43;;;1.36;76.50
62703;BME280;66022;50.448;18.122;2023-01-29T19:15:47;99709.80;;;1.36;78.00
62703;BME280;66022;50.448;18.122;2023-01-29T19:24:12;99705.91;;;1.35;78.29
62703;BME280;66022;50.448;18.122;2023-01-29T19:28:31;99702.68;;;1.37;79.36
62703;BME280;66022;50.448;18.122;2023-01-29T19:32:40;99700.02;;;1.43;78.76
62703;BME280;66022;50.448;18.122;2023-01-29T19:41:14;99695.47;;;1.50;78.70
62703;BME280;66022;50.448;18.122;2023-01-29T19:45:26;99692.49;;;1.50;80.33
62703;BME280;66022;50.448;18.122;2023-01-29T19:49:36;99689.71;;;1.53;78.92
62703;BME280;66022;50.448;18.122;2023-01-29T19:53:50;99687.84;;;1.55;79.05
62703;BME280;66022;50.448;18.122;2023-01-29T19:58:07;99685.60;;;1.54;79.34
62703;BME280;66022;50.448;18.122;2023-01-29T20:02:24;99683.75;;;1.53;79.74
62703;BME280;66022;50.448;18.122;2023-01-29T20:10:49;99679.24;;;1.48;80.44
62703;BME280;66022;50.448;18.122;2023-01-29T20:15:05;99675.64;;;1.41;82.21
62703;BME280;66022;50.448;18.122;2023-01-29T20:19:19;99672.88;;;1.41;80.50
62703;BME280;66022;50.448;18.122;2023-01-29T20:23:34;99669.81;;;1.40;80.87
62703;BME280;66022;50.448;18.122;2023-01-29T20:27:47;99668.19;;;1.37;80.82
62703;BME280;66022;50.448;18.122;2023-01-29T20:31:59;99666.96;;;1.38;80.51
62703;BME280;66022;50.448;18.122;2023-01-29T20:36:16;99665.18;;;1.36;81.46
62703;BME280;66022;50.448;18.122;2023-01-29T20:40:28;99662.41;;;1.38;80.51
62703;BME280;66022;50.448;18.122;2023-01-29T20:44:38;99657.76;;;1.37;81.17
62703;BME280;66022;50.448;18.122;2023-01-29T20:48:52;99649.90;;;1.38;80.73
62703;BME280;66022;50.448;18.122;2023-01-29T20:53:06;99642.28;;;1.39;80.69
62703;BME280;66022;50.448;18.122;2023-01-29T20:57:20;99634.01;;;1.35;81.28
62703;BME280;66022;50.448;18.122;2023-01-29T21:01:34;99624.69;;;1.36;80.83
62703;BME280;66022;50.448;18.122;2023-01-29T21:05:48;99616.71;;;1.34;82.11
62703;BME280;66022;50.448;18.122;2023-01-29T21:10:02;99609.84;;;1.33;81.07
62703;BME280;66022;50.448;18.122;2023-01-29T21:14:16;99603.72;;;1.31;81.07
62703;BME280;66022;50.448;18.122;2023-01-29T21:18:30;99597.55;;;1.28;81.18
62703;BME280;66022;50.448;18.122;2023-01-29T21:22:44;99591.69;;;1.25;81.14
62703;BME280;66022;50.448;18.122;2023-01-29T21:26:58;99585.53;;;1.19;81.67
62703;BME280;66022;50.448;18.122;2023-01-29T21:31:12;99579.03;;;1.16;81.31
62703;BME280;66022;50.448;18.122;2023-01-29T21:35:29;99571.69;;;1.11;83.66
62703;BME280;66022;50.448;18.122;2023-01-29T21:39:43;99564.69;;;1.08;81.77
62703;BME280;66022;50.448;18.122;2023-01-29T21:43:57;99556.50;;;1.03;81.71
62703;BME280;66022;50.448;18.122;2023-01-29T21:48:08;99549.94;;;0.99;81.85
62703;BME280;66022;50.448;18.122;2023-01-29T21:52:22;99543.69;;;0.96;81.65
62703;BME280;66022;50.448;18.122;2023-01-29T21:56:39;99539.97;;;0.92;82.37
62703;BME280;66022;50.448;18.122;2023-01-29T22:00:50;99536.51;;;0.90;81.85
62703;BME280;66022;50.448;18.122;2023-01-29T22:05:05;99532.37;;;0.81;84.45
62703;BME280;66022;50.448;18.122;2023-01-29T22:09:18;99527.62;;;0.80;82.22
62703;BME280;66022;50.448;18.122;2023-01-29T22:13:32;99523.61;;;0.78;82.07
62703;BME280;66022;50.448;18.122;2023-01-29T22:17:46;99519.76;;;0.76;81.56
62703;BME280;66022;50.448;18.122;2023-01-29T22:22:00;99515.84;;;0.75;80.78
62703;BME280;66022;50.448;18.122;2023-01-29T22:26:14;99511.95;;;0.71;80.35
62703;BME280;66022;50.448;18.122;2023-01-29T22:30:28;99507.53;;;0.68;79.45
62703;BME280;66022;50.448;18.122;2023-01-29T22:34:42;99502.54;;;0.63;79.54
62703;BME280;66022;50.448;18.122;2023-01-29T22:38:56;99497.71;;;0.61;79.38
62703;BME280;66022;50.448;18.122;2023-01-29T22:43:10;99493.45;;;0.60;79.14
62703;BME280;66022;50.448;18.122;2023-01-29T22:47:24;99489.84;;;0.57;79.10
62703;BME280;66022;50.448;18.122;2023-01-29T22:51:38;99483.31;;;0.57;78.99
62703;BME280;66022;50.448;18.122;2023-01-29T22:55:53;99476.90;;;0.55;78.67
62703;BME280;66022;50.448;18.122;2023-01-29T23:00:08;99470.34;;;0.53;78.49
62703;BME280;66022;50.448;18.122;2023-01-29T23:04:20;99463.56;;;0.51;78.57
62703;BME280;66022;50.448;18.122;2023-01-29T23:08:34;99455.75;;;0.47;78.85
62703;BME280;66022;50.448;18.122;2023-01-29T23:12:50;99446.54;;;0.46;78.44
62703;BME280;66022;50.448;18.122;2023-01-29T23:17:02;99435.76;;;0.41;79.76
62703;BME280;66022;50.448;18.122;2023-01-29T23:21:16;99425.02;;;0.41;78.58
62703;BME280;66022;50.448;18.122;2023-01-29T23:25:30;99413.89;;;0.38;79.70
62703;BME280;66022;50.448;18.122;2023-01-29T23:29:45;99403.23;;;0.38;78.34
62703;BME280;66022;50.448;18.122;2023-01-29T23:33:58;99394.31;;;0.38;78.11
62703;BME280;66022;50.448;18.122;2023-01-29T23:38:12;99386.50;;;0.36;78.20
62703;BME280;66022;50.448;18.122;2023-01-29T23:42:26;99376.67;;;0.36;77.69
62703;BME280;66022;50.448;18.122;2023-01-29T23:46:40;99365.64;;;0.34;78.26
62703;BME280;66022;50.448;18.122;2023-01-29T23:50:54;99357.45;;;0.34;77.32
62703;BME280;66022;50.448;18.122;2023-01-29T23:55:08;99349.86;;;0.27;78.14
62703;BME280;66022;50.448;18.122;2023-01-29T23:59:25;99340.49;;;0.26;76.57
